sensor_id;sensor_type;location;lat;lon;timestamp;pressure;altitude;pressure_sealevel;temperature;humidity
11395;BME280;5753;54.402;10.220;2023-03-13T00:00:50;100084.44;;;14.37;71.66
11395;BME280;5753;54.402;10.220;2023-03-13T00:03:16;100097.75;;;12.95;77.86
11395;BME280;5753;54.402;10.220;2023-03-13T00:05:43;100091.75;;;12.90;80.73
11395;BME280;5753;54.402;10.220;2023-03-13T00:08:09;100081.75;;;13.62;75.89
11395;BME280;5753;54.402;10.220;2023-03-13T00:10:41;100091.13;;;13.78;74.36
11395;BME280;5753;54.402;10.220;2023-03-13T00:13:08;100075.91;;;14.29;72.19
11395;BME280;5753;54.402;10.220;2023-03-13T00:15:34;100076.09;;;14.11;72.74
11395;BME280;5753;54.402;10.220;2023-03-13T00:18:01;100074.25;;;13.33;77.92
11395;BME280;5753;54.402;10.220;2023-03-13T00:20:28;100065.63;;;14.22;72.28
11395;BME280;5753;54.402;10.220;2023-03-13T00:22:54;100057.28;;;13.94;72.82
11395;BME280;5753;54.402;10.220;2023-03-13T00:25:20;100063.63;;;13.62;76.54
11395;BME280;5753;54.402;10.220;2023-03-13T00:27:46;100057.03;;;14.15;69.74
11395;BME280;5753;54.402;10.220;2023-03-13T00:30:12;100039.09;;;13.98;72.42
11395;BME280;5753;54.402;10.220;2023-03-13T00:32:43;100039.63;;;13.45;75.56
11395;BME280;5753;54.402;10.220;2023-03-13T00:35:11;100044.13;;;13.15;80.57
11395;BME280;5753;54.402;10.220;2023-03-13T00:37:37;100041.63;;;13.06;79.66
11395;BME280;5753;54.402;10.220;2023-03-13T00:40:05;100038.53;;;13.67;76.33
11395;BME280;5753;54.402;10.220;2023-03-13T00:42:31;100035.03;;;14.53;70.08
11395;BME280;5753;54.402;10.220;2023-03-13T00:44:57;100023.66;;;13.91;73.19
11395;BME280;5753;54.402;10.220;2023-03-13T00:47:24;100021.69;;;14.09;70.09
11395;BME280;5753;54.402;10.220;2023-03-13T00:49:50;100016.94;;;14.46;68.50
11395;BME280;5753;54.402;10.220;2023-03-13T00:52:16;100006.94;;;14.14;73.79
11395;BME280;5753;54.402;10.220;2023-03-13T00:54:42;100010.63;;;13.97;73.63
11395;BME280;5753;54.402;10.220;2023-03-13T00:57:09;100008.75;;;14.08;71.94
11395;BME280;5753;54.402;10.220;2023-03-13T00:59:35;100000.38;;;14.57;67.96
11395;BME280;5753;54.402;10.220;2023-03-13T01:02:01;100010.03;;;13.72;73.25
11395;BME280;5753;54.402;10.220;2023-03-13T01:04:27;99995.41;;;14.43;70.21
11395;BME280;5753;54.402;10.220;2023-03-13T01:06:53;99984.72;;;14.64;70.97
11395;BME280;5753;54.402;10.220;2023-03-13T01:09:20;99984.31;;;15.44;64.90
11395;BME280;5753;54.402;10.220;2023-03-13T01:11:46;99986.91;;;13.53;73.58
11395;BME280;5753;54.402;10.220;2023-03-13T01:14:17;99987.03;;;14.21;73.82
11395;BME280;5753;54.402;10.220;2023-03-13T01:16:44;99984.84;;;15.14;66.76
11395;BME280;5753;54.402;10.220;2023-03-13T01:19:14;99980.88;;;14.28;70.19
11395;BME280;5753;54.402;10.220;2023-03-13T01:21:42;99983.41;;;14.33;72.07
11395;BME280;5753;54.402;10.220;2023-03-13T01:24:08;99975.28;;;15.17;68.96
11395;BME280;5753;54.402;10.220;2023-03-13T01:26:34;99987.28;;;14.66;67.66
11395;BME280;5753;54.402;10.220;2023-03-13T01:29:01;99964.22;;;15.04;67.61
11395;BME280;5753;54.402;10.220;2023-03-13T01:31:30;99962.31;;;15.66;65.89
11395;BME280;5753;54.402;10.220;2023-03-13T01:33:58;99965.03;;;16.44;61.35
11395;BME280;5753;54.402;10.220;2023-03-13T01:36:25;99951.97;;;15.14;66.90
11395;BME280;5753;54.402;10.220;2023-03-13T01:38:57;99954.16;;;14.23;70.37
11395;BME280;5753;54.402;10.220;2023-03-13T01:41:25;99945.69;;;15.26;67.97
11395;BME280;5753;54.402;10.220;2023-03-13T01:43:52;99930.38;;;14.57;68.40
11395;BME280;5753;54.402;10.220;2023-03-13T01:46:22;99936.78;;;15.87;64.26
11395;BME280;5753;54.402;10.220;2023-03-13T01:53:56;99921.72;;;15.10;66.56
11395;BME280;5753;54.402;10.220;2023-03-13T01:56:33;99917.69;;;15.88;64.88
11395;BME280;5753;54.402;10.220;2023-03-13T01:59:02;99899.41;;;14.47;71.17
11395;BME280;5753;54.402;10.220;2023-03-13T02:01:29;99897.19;;;14.78;69.76
11395;BME280;5753;54.402;10.220;2023-03-13T02:03:56;99901.06;;;15.04;67.45
11395;BME280;5753;54.402;10.220;2023-03-13T02:06:24;99888.66;;;14.10;73.63
11395;BME280;5753;54.402;10.220;2023-03-13T02:08:56;99878.31;;;15.66;65.61
11395;BME280;5753;54.402;10.220;2023-03-13T02:14:12;99872.69;;;14.42;72.15
11395;BME280;5753;54.402;10.220;2023-03-13T02:16:39;99869.47;;;15.74;66.80
11395;BME280;5753;54.402;10.220;2023-03-13T02:24:44;99839.13;;;14.32;70.12
11395;BME280;5753;54.402;10.220;2023-03-13T02:27:15;99840.00;;;14.85;70.80
11395;BME280;5753;54.402;10.220;2023-03-13T02:29:41;99827.50;;;15.93;64.14
11395;BME280;5753;54.402;10.220;2023-03-13T02:32:08;99820.06;;;15.33;66.94
11395;BME280;5753;54.402;10.220;2023-03-13T02:34:37;99812.25;;;15.34;68.62
11395;BME280;5753;54.402;10.220;2023-03-13T02:37:05;99811.84;;;14.62;71.51
11395;BME280;5753;54.402;10.220;2023-03-13T02:39:36;99806.13;;;14.41;70.71
11395;BME280;5753;54.402;10.220;2023-03-13T02:42:05;99801.25;;;15.22;69.06
11395;BME280;5753;54.402;10.220;2023-03-13T02:44:34;99799.16;;;14.46;71.33
11395;BME280;5753;54.402;10.220;2023-03-13T02:47:02;99790.75;;;15.28;69.87
11395;BME280;5753;54.402;10.220;2023-03-13T02:49:29;99788.91;;;13.82;79.63
11395;BME280;5753;54.402;10.220;2023-03-13T02:52:16;99776.78;;;15.75;69.71
11395;BME280;5753;54.402;10.220;2023-03-13T02:54:46;99780.03;;;15.43;69.00
11395;BME280;5753;54.402;10.220;2023-03-13T02:57:14;99764.56;;;15.80;67.32
11395;BME280;5753;54.402;10.220;2023-03-13T02:59:41;99773.66;;;14.17;76.92
11395;BME280;5753;54.402;10.220;2023-03-13T03:02:07;99766.84;;;14.67;75.79
11395;BME280;5753;54.402;10.220;2023-03-13T03:04:33;99751.38;;;15.88;68.65
11395;BME280;5753;54.402;10.220;2023-03-13T03:06:59;99754.59;;;14.23;75.60
11395;BME280;5753;54.402;10.220;2023-03-13T03:09:26;99748.72;;;15.09;74.46
11395;BME280;5753;54.402;10.220;2023-03-13T03:11:52;99754.78;;;14.63;74.62
11395;BME280;5753;54.402;10.220;2023-03-13T03:14:18;99742.69;;;14.62;76.84
11395;BME280;5753;54.402;10.220;2023-03-13T03:16:44;99745.22;;;14.67;74.04
11395;BME280;5753;54.402;10.220;2023-03-13T03:19:11;99729.31;;;16.40;67.62
11395;BME280;5753;54.402;10.220;2023-03-13T03:21:37;99728.41;;;14.38;74.32
11395;BME280;5753;54.402;10.220;2023-03-13T03:24:03;99733.88;;;14.23;77.79
11395;BME280;5753;54.402;10.220;2023-03-13T03:26:30;99717.78;;;15.40;72.89
11395;BME280;5753;54.402;10.220;2023-03-13T03:28:56;99715.16;;;15.82;69.24
11395;BME280;5753;54.402;10.220;2023-03-13T03:31:23;99698.31;;;14.79;75.61
11395;BME280;5753;54.402;10.220;2023-03-13T03:33:49;99695.66;;;14.34;79.56
11395;BME280;5753;54.402;10.220;2023-03-13T03:36:21;99700.03;;;14.78;76.20
11395;BME280;5753;54.402;10.220;2023-03-13T03:38:48;99698.72;;;15.41;72.71
11395;BME280;5753;54.402;10.220;2023-03-13T03:41:14;99688.25;;;14.61;76.63
11395;BME280;5753;54.402;10.220;2023-03-13T03:43:42;99689.00;;;14.18;78.91
11395;BME280;5753;54.402;10.220;2023-03-13T03:46:08;99675.19;;;14.65;76.97
11395;BME280;5753;54.402;10.220;2023-03-13T03:48:34;99665.25;;;15.67;72.35
11395;BME280;5753;54.402;10.220;2023-03-13T03:51:01;99651.59;;;15.59;70.38
11395;BME280;5753;54.402;10.220;2023-03-13T03:53:28;99659.53;;;14.73;77.07
11395;BME280;5753;54.402;10.220;2023-03-13T03:55:54;99649.81;;;14.36;78.77
11395;BME280;5753;54.402;10.220;2023-03-13T03:58:20;99644.88;;;15.10;75.56
11395;BME280;5753;54.402;10.220;2023-03-13T04:00:47;99636.53;;;14.55;75.93
11395;BME280;5753;54.402;10.220;2023-03-13T04:03:14;99619.00;;;14.66;74.76
11395;BME280;5753;54.402;10.220;2023-03-13T04:05:41;99616.59;;;14.09;78.90
11395;BME280;5753;54.402;10.220;2023-03-13T04:08:08;99617.50;;;13.57;82.59
11395;BME280;5753;54.402;10.220;2023-03-13T04:10:34;99602.41;;;13.83;80.38
11395;BME280;5753;54.402;10.220;2023-03-13T04:13:01;99593.97;;;14.20;78.31
11395;BME280;5753;54.402;10.220;2023-03-13T04:15:27;99571.19;;;15.18;74.31
11395;BME280;5753;54.402;10.220;2023-03-13T04:17:53;99570.75;;;14.14;79.48
11395;BME280;5753;54.402;10.220;2023-03-13T04:20:20;99571.72;;;14.53;74.78
11395;BME280;5753;54.402;10.220;2023-03-13T04:22:46;99562.91;;;14.62;77.84
11395;BME280;5753;54.402;10.220;2023-03-13T04:25:12;99568.22;;;13.62;83.26
11395;BME280;5753;54.402;10.220;2023-03-13T04:27:38;99547.63;;;14.88;76.21
11395;BME280;5753;54.402;10.220;2023-03-13T04:30:04;99549.22;;;13.63;84.72
11395;BME280;5753;54.402;10.220;2023-03-13T04:32:32;99542.88;;;14.27;80.55
11395;BME280;5753;54.402;10.220;2023-03-13T04:34:58;99526.63;;;14.17;82.44
11395;BME280;5753;54.402;10.220;2023-03-13T04:37:24;99542.81;;;13.83;84.24
11395;BME280;5753;54.402;10.220;2023-03-13T04:39:50;99531.78;;;15.00;77.05
11395;BME280;5753;54.402;10.220;2023-03-13T04:42:17;99521.34;;;15.03;76.41
11395;BME280;5753;54.402;10.220;2023-03-13T04:44:43;99516.09;;;14.26;78.78
11395;BME280;5753;54.402;10.220;2023-03-13T04:47:09;99499.19;;;14.50;79.07
11395;BME280;5753;54.402;10.220;2023-03-13T04:49:35;99501.09;;;14.82;76.38
11395;BME280;5753;54.402;10.220;2023-03-13T04:52:01;99500.22;;;14.41;80.51
11395;BME280;5753;54.402;10.220;2023-03-13T04:54:28;99496.66;;;14.47;77.58
11395;BME280;5753;54.402;10.220;2023-03-13T04:56:54;99491.06;;;14.25;80.91
11395;BME280;5753;54.402;10.220;2023-03-13T04:59:20;99477.06;;;13.91;83.29
11395;BME280;5753;54.402;10.220;2023-03-13T05:01:46;99463.16;;;14.38;81.25
11395;BME280;5753;54.402;10.220;2023-03-13T05:04:12;99460.53;;;14.78;78.02
11395;BME280;5753;54.402;10.220;2023-03-13T05:06:39;99447.47;;;14.44;77.05
11395;BME280;5753;54.402;10.220;2023-03-13T05:09:05;99452.00;;;15.08;74.82
11395;BME280;5753;54.402;10.220;2023-03-13T05:11:32;99445.41;;;14.95;78.26
11395;BME280;5753;54.402;10.220;2023-03-13T05:13:58;99426.22;;;16.00;71.26
11395;BME280;5753;54.402;10.220;2023-03-13T05:16:24;99414.81;;;15.42;73.49
11395;BME280;5753;54.402;10.220;2023-03-13T05:18:51;99406.19;;;14.35;81.13
11395;BME280;5753;54.402;10.220;2023-03-13T05:21:17;99389.31;;;14.56;80.21
11395;BME280;5753;54.402;10.220;2023-03-13T05:23:43;99386.25;;;14.37;80.74
11395;BME280;5753;54.402;10.220;2023-03-13T05:26:09;99381.50;;;14.17;82.42
11395;BME280;5753;54.402;10.220;2023-03-13T05:28:35;99380.56;;;14.23;83.97
11395;BME280;5753;54.402;10.220;2023-03-13T05:31:01;99372.41;;;15.09;77.93
11395;BME280;5753;54.402;10.220;2023-03-13T05:33:28;99363.69;;;14.79;79.69
11395;BME280;5753;54.402;10.220;2023-03-13T05:35:54;99360.16;;;15.16;76.17
11395;BME280;5753;54.402;10.220;2023-03-13T05:38:20;99360.16;;;14.82;76.31
11395;BME280;5753;54.402;10.220;2023-03-13T05:40:46;99341.22;;;15.10;77.62
11395;BME280;5753;54.402;10.220;2023-03-13T05:43:12;99343.50;;;14.56;78.82
11395;BME280;5753;54.402;10.220;2023-03-13T05:45:38;99334.94;;;15.50;74.55
11395;BME280;5753;54.402;10.220;2023-03-13T05:48:05;99326.78;;;15.65;74.07
11395;BME280;5753;54.402;10.220;2023-03-13T05:50:31;99330.03;;;16.56;69.86
11395;BME280;5753;54.402;10.220;2023-03-13T05:52:57;99323.16;;;14.75;78.38
11395;BME280;5753;54.402;10.220;2023-03-13T05:55:23;99314.44;;;14.43;79.17
11395;BME280;5753;54.402;10.220;2023-03-13T05:57:49;99303.91;;;15.16;80.29
11395;BME280;5753;54.402;10.220;2023-03-13T06:00:16;99311.16;;;15.03;80.68
11395;BME280;5753;54.402;10.220;2023-03-13T06:02:43;99297.91;;;15.12;76.72
11395;BME280;5753;54.402;10.220;2023-03-13T06:05:10;99295.72;;;14.65;80.57
11395;BME280;5753;54.402;10.220;2023-03-13T06:07:36;99285.59;;;15.21;81.47
11395;BME280;5753;54.402;10.220;2023-03-13T06:10:03;99278.69;;;15.80;76.69
11395;BME280;5753;54.402;10.220;2023-03-13T06:12:30;99270.31;;;13.69;91.50
11395;BME280;5753;54.402;10.220;2023-03-13T06:14:56;99257.88;;;13.86;88.02
11395;BME280;5753;54.402;10.220;2023-03-13T06:17:22;99272.94;;;14.43;86.36
11395;BME280;5753;54.402;10.220;2023-03-13T06:19:50;99265.59;;;14.25;88.33
11395;BME280;5753;54.402;10.220;2023-03-13T06:22:19;99250.88;;;14.27;89.21
11395;BME280;5753;54.402;10.220;2023-03-13T06:24:45;99238.47;;;14.03;87.63
11395;BME280;5753;54.402;10.220;2023-03-13T06:27:14;99236.41;;;13.00;97.10
11395;BME280;5753;54.402;10.220;2023-03-13T06:29:40;99233.09;;;15.40;82.60
11395;BME280;5753;54.402;10.220;2023-03-13T06:32:06;99224.66;;;15.34;79.74
11395;BME280;5753;54.402;10.220;2023-03-13T06:34:32;99220.09;;;14.82;84.39
11395;BME280;5753;54.402;10.220;2023-03-13T06:36:59;99217.38;;;14.86;84.89
11395;BME280;5753;54.402;10.220;2023-03-13T06:39:25;99211.72;;;14.72;86.98
11395;BME280;5753;54.402;10.220;2023-03-13T06:41:51;99218.88;;;14.62;85.66
11395;BME280;5753;54.402;10.220;2023-03-13T06:44:17;99200.66;;;15.26;83.62
11395;BME280;5753;54.402;10.220;2023-03-13T06:46:43;99185.53;;;14.81;86.74
11395;BME280;5753;54.402;10.220;2023-03-13T06:49:10;99181.53;;;16.12;78.15
11395;BME280;5753;54.402;10.220;2023-03-13T06:51:36;99179.44;;;14.82;85.24
11395;BME280;5753;54.402;10.220;2023-03-13T06:54:02;99185.03;;;14.98;84.36
11395;BME280;5753;54.402;10.220;2023-03-13T06:56:28;99160.22;;;15.47;80.65
11395;BME280;5753;54.402;10.220;2023-03-13T06:58:55;99162.84;;;15.74;81.96
11395;BME280;5753;54.402;10.220;2023-03-13T07:01:21;99145.16;;;15.86;79.47
11395;BME280;5753;54.402;10.220;2023-03-13T07:03:48;99141.88;;;16.05;80.16
11395;BME280;5753;54.402;10.220;2023-03-13T07:06:15;99143.97;;;14.52;85.13
11395;BME280;5753;54.402;10.220;2023-03-13T07:08:41;99133.44;;;15.99;80.38
11395;BME280;5753;54.402;10.220;2023-03-13T07:11:11;99129.66;;;16.34;76.39
11395;BME280;5753;54.402;10.220;2023-03-13T07:13:38;99108.28;;;15.20;86.73
11395;BME280;5753;54.402;10.220;2023-03-13T07:16:06;99102.00;;;14.70;88.58
11395;BME280;5753;54.402;10.220;2023-03-13T07:18:33;99123.09;;;14.56;90.30
11395;BME280;5753;54.402;10.220;2023-03-13T07:21:01;99095.22;;;15.78;84.26
11395;BME280;5753;54.402;10.220;2023-03-13T07:23:30;99091.06;;;15.72;84.09
11395;BME280;5753;54.402;10.220;2023-03-13T07:26:03;99084.44;;;15.35;84.32
11395;BME280;5753;54.402;10.220;2023-03-13T07:28:30;99064.44;;;13.89;98.22
11395;BME280;5753;54.402;10.220;2023-03-13T07:31:21;99064.94;;;13.69;98.41
11395;BME280;5753;54.402;10.220;2023-03-13T07:33:49;99045.25;;;13.96;97.14
11395;BME280;5753;54.402;10.220;2023-03-13T07:36:21;99068.00;;;15.35;91.87
11395;BME280;5753;54.402;10.220;2023-03-13T07:38:48;99058.91;;;14.33;96.66
11395;BME280;5753;54.402;10.220;2023-03-13T07:41:15;99050.84;;;15.03;92.46
11395;BME280;5753;54.402;10.220;2023-03-13T07:43:41;99057.72;;;14.46;97.95
11395;BME280;5753;54.402;10.220;2023-03-13T07:46:16;99058.09;;;13.66;100.00
11395;BME280;5753;54.402;10.220;2023-03-13T07:48:46;99048.47;;;14.36;100.00
11395;BME280;5753;54.402;10.220;2023-03-13T07:51:19;99042.34;;;14.70;96.48
11395;BME280;5753;54.402;10.220;2023-03-13T07:53:46;99030.13;;;15.29;93.81
11395;BME280;5753;54.402;10.220;2023-03-13T07:56:18;99036.25;;;14.71;99.13
11395;BME280;5753;54.402;10.220;2023-03-13T07:58:45;99036.00;;;15.06;98.58
11395;BME280;5753;54.402;10.220;2023-03-13T08:01:16;99008.19;;;15.38;93.42
11395;BME280;5753;54.402;10.220;2023-03-13T08:03:43;99043.47;;;14.30;100.00
11395;BME280;5753;54.402;10.220;2023-03-13T08:06:11;99027.50;;;14.75;100.00
11395;BME280;5753;54.402;10.220;2023-03-13T08:08:39;99018.88;;;15.29;97.10
11395;BME280;5753;54.402;10.220;2023-03-13T08:11:08;99002.59;;;14.97;97.12
11395;BME280;5753;54.402;10.220;2023-03-13T08:13:36;99041.84;;;15.13;95.34
11395;BME280;5753;54.402;10.220;2023-03-13T08:16:05;99005.63;;;14.54;100.00
11395;BME280;5753;54.402;10.220;2023-03-13T08:18:32;99011.53;;;15.15;98.84
11395;BME280;5753;54.402;10.220;2023-03-13T08:21:06;99007.59;;;16.06;93.30
11395;BME280;5753;54.402;10.220;2023-03-13T08:23:32;99021.50;;;14.43;100.00
11395;BME280;5753;54.402;10.220;2023-03-13T08:26:13;99024.88;;;13.83;100.00
11395;BME280;5753;54.402;10.220;2023-03-13T08:28:41;99007.47;;;15.61;97.07
11395;BME280;5753;54.402;10.220;2023-03-13T08:31:12;99023.56;;;14.90;98.49
11395;BME280;5753;54.402;10.220;2023-03-13T08:33:39;98998.50;;;15.43;100.00
11395;BME280;5753;54.402;10.220;2023-03-13T08:38:38;99006.06;;;14.96;98.71
11395;BME280;5753;54.402;10.220;2023-03-13T08:41:07;99006.53;;;15.09;100.00
11395;BME280;5753;54.402;10.220;2023-03-13T08:43:33;99003.03;;;14.54;100.00
11395;BME280;5753;54.402;10.220;2023-03-13T08:46:00;98993.44;;;15.14;100.00
11395;BME280;5753;54.402;10.220;2023-03-13T08:48:26;98993.22;;;14.64;100.00
11395;BME280;5753;54.402;10.220;2023-03-13T08:51:07;98985.31;;;16.24;95.64
11395;BME280;5753;54.402;10.220;2023-03-13T08:53:35;98980.66;;;16.09;96.24
11395;BME280;5753;54.402;10.220;2023-03-13T08:56:03;98968.94;;;15.73;98.17
11395;BME280;5753;54.402;10.220;2023-03-13T08:58:30;98973.69;;;15.86;97.15
11395;BME280;5753;54.402;10.220;2023-03-13T09:01:02;98974.63;;;15.58;100.00
11395;BME280;5753;54.402;10.220;2023-03-13T09:03:29;98968.81;;;14.41;100.00
11395;BME280;5753;54.402;10.220;2023-03-13T09:05:59;98974.47;;;16.13;100.00
11395;BME280;5753;54.402;10.220;2023-03-13T09:08:26;98950.63;;;16.00;100.00
11395;BME280;5753;54.402;10.220;2023-03-13T09:11:07;98971.75;;;16.16;98.52
11395;BME280;5753;54.402;10.220;2023-03-13T09:13:35;98956.53;;;15.55;100.00
11395;BME280;5753;54.402;10.220;2023-03-13T09:16:10;98949.22;;;15.17;100.00
11395;BME280;5753;54.402;10.220;2023-03-13T09:18:37;98955.84;;;15.25;100.00
11395;BME280;5753;54.402;10.220;2023-03-13T09:21:06;98955.75;;;15.53;100.00
11395;BME280;5753;54.402;10.220;2023-03-13T09:23:33;98954.25;;;15.46;100.00
11395;BME280;5753;54.402;10.220;2023-03-13T09:25:59;98934.03;;;14.78;100.00
11395;BME280;5753;54.402;10.220;2023-03-13T09:28:26;98950.28;;;15.09;100.00
11395;BME280;5753;54.402;10.220;2023-03-13T09:30:53;98944.81;;;15.93;100.00
11395;BME280;5753;54.402;10.220;2023-03-13T09:33:20;98942.13;;;16.20;100.00
11395;BME280;5753;54.402;10.220;2023-03-13T09:35:49;98945.66;;;15.70;100.00
11395;BME280;5753;54.402;10.220;2023-03-13T09:38:20;98942.13;;;15.96;100.00
11395;BME280;5753;54.402;10.220;2023-03-13T09:40:48;98943.22;;;15.66;100.00
11395;BME280;5753;54.402;10.220;2023-03-13T09:46:36;98941.53;;;15.38;100.00
11395;BME280;5753;54.402;10.220;2023-03-13T09:49:10;98942.28;;;15.92;100.00
11395;BME280;5753;54.402;10.220;2023-03-13T09:51:40;98929.81;;;15.78;100.00
11395;BME280;5753;54.402;10.220;2023-03-13T09:54:24;98934.56;;;17.03;98.30
11395;BME280;5753;54.402;10.220;2023-03-13T10:02:37;98926.13;;;16.30;100.00
11395;BME280;5753;54.402;10.220;2023-03-13T10:05:18;98940.50;;;16.84;100.00
11395;BME280;5753;54.402;10.220;2023-03-13T10:07:45;98944.00;;;16.61;100.00
11395;BME280;5753;54.402;10.220;2023-03-13T10:10:27;98933.50;;;16.41;100.00
11395;BME280;5753;54.402;10.220;2023-03-13T10:13:02;98939.53;;;16.65;100.00
11395;BME280;5753;54.402;10.220;2023-03-13T10:18:16;98941.91;;;16.48;100.00
11395;BME280;5753;54.402;10.220;2023-03-13T10:20:47;98946.22;;;15.79;100.00
11395;BME280;5753;54.402;10.220;2023-03-13T10:25:59;98959.88;;;16.54;100.00
11395;BME280;5753;54.402;10.220;2023-03-13T10:28:25;98953.09;;;16.28;100.00
11395;BME280;5753;54.402;10.220;2023-03-13T10:31:05;98956.84;;;17.30;100.00
11395;BME280;5753;54.402;10.220;2023-03-13T10:33:36;98967.69;;;16.77;100.00
11395;BME280;5753;54.402;10.220;2023-03-13T10:36:13;98984.16;;;16.31;100.00
11395;BME280;5753;54.402;10.220;2023-03-13T10:38:49;98952.06;;;16.77;100.00
11395;BME280;5753;54.402;10.220;2023-03-13T10:41:24;98970.53;;;16.01;100.00
11395;BME280;5753;54.402;10.220;2023-03-13T10:43:59;98944.94;;;16.82;100.00
11395;BME280;5753;54.402;10.220;2023-03-13T10:46:31;98954.06;;;16.25;100.00
11395;BME280;5753;54.402;10.220;2023-03-13T10:49:02;98935.75;;;17.36;96.25
11395;BME280;5753;54.402;10.220;2023-03-13T10:51:39;98951.78;;;17.27;94.23
11395;BME280;5753;54.402;10.220;2023-03-13T10:56:48;98976.16;;;17.04;93.74
11395;BME280;5753;54.402;10.220;2023-03-13T10:59:32;98937.44;;;17.98;89.76
11395;BME280;5753;54.402;10.220;2023-03-13T11:02:28;98938.13;;;17.83;89.38
11395;BME280;5753;54.402;10.220;2023-03-13T11:04:57;98934.22;;;16.68;93.33
11395;BME280;5753;54.402;10.220;2023-03-13T11:07:37;98946.69;;;17.44;88.98
11395;BME280;5753;54.402;10.220;2023-03-13T11:10:27;98954.13;;;17.33;89.74
11395;BME280;5753;54.402;10.220;2023-03-13T11:12:58;98936.34;;;17.22;89.07
11395;BME280;5753;54.402;10.220;2023-03-13T11:15:38;98962.69;;;18.16;84.76
11395;BME280;5753;54.402;10.220;2023-03-13T11:18:23;98947.66;;;18.40;84.58
11395;BME280;5753;54.402;10.220;2023-03-13T11:20:52;98956.97;;;17.69;85.25
11395;BME280;5753;54.402;10.220;2023-03-13T11:23:19;98959.84;;;17.41;87.00
11395;BME280;5753;54.402;10.220;2023-03-13T11:32:02;98922.88;;;18.50;78.86
11395;BME280;5753;54.402;10.220;2023-03-13T11:34:25;98956.34;;;18.03;77.14
11395;BME280;5753;54.402;10.220;2023-03-13T11:36:59;98943.59;;;18.72;73.00
11395;BME280;5753;54.402;10.220;2023-03-13T11:51:01;98920.84;;;19.10;68.64
11395;BME280;5753;54.402;10.220;2023-03-13T11:56:49;98927.16;;;18.33;68.03
11395;BME280;5753;54.402;10.220;2023-03-13T12:02:05;98887.75;;;18.94;68.42
11395;BME280;5753;54.402;10.220;2023-03-13T12:04:43;98926.31;;;18.13;68.85
11395;BME280;5753;54.402;10.220;2023-03-13T12:07:31;98943.97;;;17.27;71.07
11395;BME280;5753;54.402;10.220;2023-03-13T12:10:03;98921.50;;;18.42;68.84
11395;BME280;5753;54.402;10.220;2023-03-13T12:12:46;98936.47;;;18.19;68.99
11395;BME280;5753;54.402;10.220;2023-03-13T12:15:36;98948.22;;;17.70;71.08
11395;BME280;5753;54.402;10.220;2023-03-13T12:18:32;98975.25;;;17.88;68.32
11395;BME280;5753;54.402;10.220;2023-03-13T12:21:05;98947.56;;;17.85;65.32
11395;BME280;5753;54.402;10.220;2023-03-13T12:23:43;98930.53;;;18.35;66.61
11395;BME280;5753;54.402;10.220;2023-03-13T12:26:24;98971.44;;;18.15;63.11
11395;BME280;5753;54.402;10.220;2023-03-13T12:43:13;98914.19;;;18.50;60.41
11395;BME280;5753;54.402;10.220;2023-03-13T12:51:36;98916.28;;;18.79;57.55
11395;BME280;5753;54.402;10.220;2023-03-13T13:01:52;98912.63;;;19.01;55.60
11395;BME280;5753;54.402;10.220;2023-03-13T13:04:30;98914.78;;;18.93;56.95
11395;BME280;5753;54.402;10.220;2023-03-13T13:09:34;98917.47;;;17.38;58.75
11395;BME280;5753;54.402;10.220;2023-03-13T13:12:15;98882.16;;;19.69;53.42
11395;BME280;5753;54.402;10.220;2023-03-13T13:22:55;98901.63;;;20.12;51.96
11395;BME280;5753;54.402;10.220;2023-03-13T13:27:53;98885.09;;;20.27;50.09
11395;BME280;5753;54.402;10.220;2023-03-13T13:37:46;98870.66;;;19.56;49.57
11395;BME280;5753;54.402;10.220;2023-03-13T13:40:17;98856.56;;;20.23;49.48
11395;BME280;5753;54.402;10.220;2023-03-13T13:43:03;98795.56;;;19.09;50.51
11395;BME280;5753;54.402;10.220;2023-03-13T13:45:35;98831.91;;;19.64;49.11
11395;BME280;5753;54.402;10.220;2023-03-13T13:53:55;98845.50;;;19.70;49.96
11395;BME280;5753;54.402;10.220;2023-03-13T14:01:47;98836.13;;;18.64;53.14
11395;BME280;5753;54.402;10.220;2023-03-13T14:07:03;98827.47;;;18.98;52.93
11395;BME280;5753;54.402;10.220;2023-03-13T14:17:51;98805.84;;;20.87;48.51
11395;BME280;5753;54.402;10.220;2023-03-13T14:20:31;98802.56;;;20.37;49.41
11395;BME280;5753;54.402;10.220;2023-03-13T14:23:09;98808.38;;;21.47;47.24
11395;BME280;5753;54.402;10.220;2023-03-13T14:25:49;98808.41;;;21.17;48.14
11395;BME280;5753;54.402;10.220;2023-03-13T14:28:27;98770.34;;;21.68;46.74
11395;BME280;5753;54.402;10.220;2023-03-13T14:30:56;98793.22;;;23.39;42.87
11395;BME280;5753;54.402;10.220;2023-03-13T14:33:23;98789.19;;;21.46;46.23
11395;BME280;5753;54.402;10.220;2023-03-13T14:35:52;98777.84;;;20.27;47.89
11395;BME280;5753;54.402;10.220;2023-03-13T14:38:23;98802.50;;;20.69;47.82
11395;BME280;5753;54.402;10.220;2023-03-13T14:40:52;98796.00;;;19.83;49.45
11395;BME280;5753;54.402;10.220;2023-03-13T14:43:54;98829.38;;;18.77;51.05
11395;BME280;5753;54.402;10.220;2023-03-13T14:46:49;98815.94;;;19.35;50.86
11395;BME280;5753;54.402;10.220;2023-03-13T14:49:20;98800.47;;;20.12;49.84
11395;BME280;5753;54.402;10.220;2023-03-13T14:54:34;98781.97;;;20.31;48.94
11395;BME280;5753;54.402;10.220;2023-03-13T14:59:36;98804.53;;;19.87;49.39
11395;BME280;5753;54.402;10.220;2023-03-13T15:02:22;98793.38;;;20.15;49.59
11395;BME280;5753;54.402;10.220;2023-03-13T15:05:02;98783.91;;;18.81;52.12
11395;BME280;5753;54.402;10.220;2023-03-13T15:07:37;98796.44;;;18.92;52.21
11395;BME280;5753;54.402;10.220;2023-03-13T15:10:40;98819.81;;;18.59;52.67
11395;BME280;5753;54.402;10.220;2023-03-13T15:13:23;98807.50;;;19.30;51.55
11395;BME280;5753;54.402;10.220;2023-03-13T15:15:51;98797.09;;;19.13;49.97
11395;BME280;5753;54.402;10.220;2023-03-13T15:18:26;98801.09;;;19.20;49.87
11395;BME280;5753;54.402;10.220;2023-03-13T15:20:55;98803.72;;;18.68;51.35
11395;BME280;5753;54.402;10.220;2023-03-13T15:23:22;98793.53;;;18.28;51.75